<?xml version="1.0" encoding="UTF-8" standalone="no" ?>
<gpx xmlns="http://www.topografix.com/GPX/1/1" xmlns:xsi="http://www.w3.org/2001/XMLSchema-instance" xsi:schemaLocation="http://www.topografix.com/GPX/1/1 http://www.topografix.com/GPX/1/1/gpx.xsd" version="1.1" creator="VisuGPX - https://www.visugpx.com">
  <metadata>
    <name>14037074-Cabanes de la Hosse 12-12-2021</name>
  </metadata>
  <trk>
    <name><![CDATA[14037074-Cabanes de la Hosse 12-12-2021]]></name>
    <extensions>
      <line xmlns="http://www.topografix.com/GPX/gpx_style/0/2">
        <color>0000FF</color>
        <width>4</width>
      </line>
    </extensions>
    <trkseg>
      <trkpt lat="42.94242" lon="0.27992">
        <ele>1091</ele>
        <time>2022-04-01T16:21:33Z</time>
      </trkpt>
      <trkpt lat="42.9423" lon="0.28023">
        <ele>1092</ele>
        <time>2022-04-01T16:21:54Z</time>
      </trkpt>
      <trkpt lat="42.94217" lon="0.2804">
        <ele>1093</ele>
        <time>2022-04-01T16:22:08Z</time>
      </trkpt>
      <trkpt lat="42.94202" lon="0.28055">
        <ele>1095</ele>
        <time>2022-04-01T16:22:23Z</time>
      </trkpt>
      <trkpt lat="42.94137" lon="0.28104">
        <ele>1102</ele>
        <time>2022-04-01T16:23:22Z</time>
      </trkpt>
      <trkpt lat="42.94122" lon="0.28118">
        <ele>1104</ele>
        <time>2022-04-01T16:23:37Z</time>
      </trkpt>
      <trkpt lat="42.94099" lon="0.28157">
        <ele>1107</ele>
        <time>2022-04-01T16:24:06Z</time>
      </trkpt>
      <trkpt lat="42.94081" lon="0.282">
        <ele>1108</ele>
        <time>2022-04-01T16:24:35Z</time>
      </trkpt>
      <trkpt lat="42.94079" lon="0.28214">
        <ele>1108</ele>
        <time>2022-04-01T16:24:44Z</time>
      </trkpt>
      <trkpt lat="42.94071" lon="0.28218">
        <ele>1108</ele>
        <time>2022-04-01T16:24:50Z</time>
      </trkpt>
      <trkpt lat="42.94058" lon="0.28238">
        <ele>1108</ele>
        <time>2022-04-01T16:25:06Z</time>
      </trkpt>
      <trkpt lat="42.9403" lon="0.28273">
        <ele>1109</ele>
        <time>2022-04-01T16:25:36Z</time>
      </trkpt>
      <trkpt lat="42.94006" lon="0.28312">
        <ele>1109</ele>
        <time>2022-04-01T16:26:06Z</time>
      </trkpt>
      <trkpt lat="42.93998" lon="0.28318">
        <ele>1109</ele>
        <time>2022-04-01T16:26:14Z</time>
      </trkpt>
      <trkpt lat="42.93986" lon="0.28337">
        <ele>1109</ele>
        <time>2022-04-01T16:26:28Z</time>
      </trkpt>
      <trkpt lat="42.93958" lon="0.28371">
        <ele>1111</ele>
        <time>2022-04-01T16:26:58Z</time>
      </trkpt>
      <trkpt lat="42.93944" lon="0.28405">
        <ele>1113</ele>
        <time>2022-04-01T16:27:21Z</time>
      </trkpt>
      <trkpt lat="42.93933" lon="0.28425">
        <ele>1114</ele>
        <time>2022-04-01T16:27:36Z</time>
      </trkpt>
      <trkpt lat="42.93918" lon="0.28439">
        <ele>1115</ele>
        <time>2022-04-01T16:27:50Z</time>
      </trkpt>
      <trkpt lat="42.9388" lon="0.28497">
        <ele>1118</ele>
        <time>2022-04-01T16:28:36Z</time>
      </trkpt>
      <trkpt lat="42.93864" lon="0.28529">
        <ele>1118</ele>
        <time>2022-04-01T16:28:59Z</time>
      </trkpt>
      <trkpt lat="42.9376" lon="0.28694">
        <ele>1125</ele>
        <time>2022-04-01T16:31:06Z</time>
      </trkpt>
      <trkpt lat="42.9375" lon="0.28717">
        <ele>1126</ele>
        <time>2022-04-01T16:31:22Z</time>
      </trkpt>
      <trkpt lat="42.93685" lon="0.28827">
        <ele>1126</ele>
        <time>2022-04-01T16:32:45Z</time>
      </trkpt>
      <trkpt lat="42.93659" lon="0.28879">
        <ele>1127</ele>
        <time>2022-04-01T16:33:22Z</time>
      </trkpt>
      <trkpt lat="42.93619" lon="0.2895">
        <ele>1128</ele>
        <time>2022-04-01T16:34:14Z</time>
      </trkpt>
      <trkpt lat="42.936" lon="0.28979">
        <ele>1129</ele>
        <time>2022-04-01T16:34:37Z</time>
      </trkpt>
      <trkpt lat="42.93566" lon="0.29056">
        <ele>1129</ele>
        <time>2022-04-01T16:35:30Z</time>
      </trkpt>
      <trkpt lat="42.93544" lon="0.2908">
        <ele>1130</ele>
        <time>2022-04-01T16:35:52Z</time>
      </trkpt>
      <trkpt lat="42.93504" lon="0.29132">
        <ele>1134</ele>
        <time>2022-04-01T16:36:37Z</time>
      </trkpt>
      <trkpt lat="42.93494" lon="0.29153">
        <ele>1134</ele>
        <time>2022-04-01T16:36:51Z</time>
      </trkpt>
      <trkpt lat="42.93491" lon="0.29165">
        <ele>1134</ele>
        <time>2022-04-01T16:36:59Z</time>
      </trkpt>
      <trkpt lat="42.9348" lon="0.29185">
        <ele>1135</ele>
        <time>2022-04-01T16:37:13Z</time>
      </trkpt>
      <trkpt lat="42.93459" lon="0.29243">
        <ele>1138</ele>
        <time>2022-04-01T16:37:51Z</time>
      </trkpt>
      <trkpt lat="42.93443" lon="0.29279">
        <ele>1139</ele>
        <time>2022-04-01T16:38:16Z</time>
      </trkpt>
      <trkpt lat="42.93438" lon="0.29303">
        <ele>1140</ele>
        <time>2022-04-01T16:38:31Z</time>
      </trkpt>
      <trkpt lat="42.93432" lon="0.2931">
        <ele>1141</ele>
        <time>2022-04-01T16:38:37Z</time>
      </trkpt>
      <trkpt lat="42.93423" lon="0.2931">
        <ele>1141</ele>
        <time>2022-04-01T16:38:44Z</time>
      </trkpt>
      <trkpt lat="42.93385" lon="0.29318">
        <ele>1144</ele>
        <time>2022-04-01T16:39:15Z</time>
      </trkpt>
      <trkpt lat="42.93346" lon="0.29338">
        <ele>1147</ele>
        <time>2022-04-01T16:39:48Z</time>
      </trkpt>
      <trkpt lat="42.93335" lon="0.29333">
        <ele>1148</ele>
        <time>2022-04-01T16:39:58Z</time>
      </trkpt>
      <trkpt lat="42.93328" lon="0.2932">
        <ele>1148</ele>
        <time>2022-04-01T16:40:07Z</time>
      </trkpt>
      <trkpt lat="42.9331" lon="0.2931">
        <ele>1150</ele>
        <time>2022-04-01T16:40:23Z</time>
      </trkpt>
      <trkpt lat="42.93292" lon="0.29306">
        <ele>1151</ele>
        <time>2022-04-01T16:40:37Z</time>
      </trkpt>
      <trkpt lat="42.93274" lon="0.29308">
        <ele>1153</ele>
        <time>2022-04-01T16:40:52Z</time>
      </trkpt>
      <trkpt lat="42.93257" lon="0.29322">
        <ele>1155</ele>
        <time>2022-04-01T16:41:08Z</time>
      </trkpt>
      <trkpt lat="42.93253" lon="0.29334">
        <ele>1156</ele>
        <time>2022-04-01T16:41:15Z</time>
      </trkpt>
      <trkpt lat="42.93263" lon="0.29357">
        <ele>1157</ele>
        <time>2022-04-01T16:41:31Z</time>
      </trkpt>
      <trkpt lat="42.93281" lon="0.29369">
        <ele>1157</ele>
        <time>2022-04-01T16:41:47Z</time>
      </trkpt>
      <trkpt lat="42.93309" lon="0.29381">
        <ele>1154</ele>
        <time>2022-04-01T16:42:11Z</time>
      </trkpt>
      <trkpt lat="42.93317" lon="0.29388">
        <ele>1154</ele>
        <time>2022-04-01T16:42:18Z</time>
      </trkpt>
      <trkpt lat="42.93321" lon="0.29402">
        <ele>1155</ele>
        <time>2022-04-01T16:42:27Z</time>
      </trkpt>
      <trkpt lat="42.93349" lon="0.29439">
        <ele>1153</ele>
        <time>2022-04-01T16:42:58Z</time>
      </trkpt>
      <trkpt lat="42.93355" lon="0.29472">
        <ele>1154</ele>
        <time>2022-04-01T16:43:18Z</time>
      </trkpt>
      <trkpt lat="42.93355" lon="0.29484">
        <ele>1155</ele>
        <time>2022-04-01T16:43:25Z</time>
      </trkpt>
      <trkpt lat="42.93338" lon="0.29475">
        <ele>1158</ele>
        <time>2022-04-01T16:43:40Z</time>
      </trkpt>
      <trkpt lat="42.93331" lon="0.29468">
        <ele>1159</ele>
        <time>2022-04-01T16:43:47Z</time>
      </trkpt>
      <trkpt lat="42.93304" lon="0.29469">
        <ele>1165</ele>
        <time>2022-04-01T16:44:08Z</time>
      </trkpt>
      <trkpt lat="42.93295" lon="0.29472">
        <ele>1168</ele>
        <time>2022-04-01T16:44:16Z</time>
      </trkpt>
      <trkpt lat="42.93281" lon="0.29483">
        <ele>1173</ele>
        <time>2022-04-01T16:44:29Z</time>
      </trkpt>
      <trkpt lat="42.93266" lon="0.29503">
        <ele>1179</ele>
        <time>2022-04-01T16:44:45Z</time>
      </trkpt>
      <trkpt lat="42.93248" lon="0.29513">
        <ele>1183</ele>
        <time>2022-04-01T16:45:01Z</time>
      </trkpt>
      <trkpt lat="42.93211" lon="0.29521">
        <ele>1190</ele>
        <time>2022-04-01T16:45:31Z</time>
      </trkpt>
      <trkpt lat="42.93189" lon="0.2953">
        <ele>1194</ele>
        <time>2022-04-01T16:45:49Z</time>
      </trkpt>
      <trkpt lat="42.93171" lon="0.29542">
        <ele>1197</ele>
        <time>2022-04-01T16:46:05Z</time>
      </trkpt>
      <trkpt lat="42.93146" lon="0.29553">
        <ele>1202</ele>
        <time>2022-04-01T16:46:26Z</time>
      </trkpt>
      <trkpt lat="42.93127" lon="0.29552">
        <ele>1205</ele>
        <time>2022-04-01T16:46:42Z</time>
      </trkpt>
      <trkpt lat="42.93116" lon="0.29554">
        <ele>1207</ele>
        <time>2022-04-01T16:46:51Z</time>
      </trkpt>
      <trkpt lat="42.93075" lon="0.29573">
        <ele>1218</ele>
        <time>2022-04-01T16:47:25Z</time>
      </trkpt>
      <trkpt lat="42.93023" lon="0.29588">
        <ele>1230</ele>
        <time>2022-04-01T16:48:08Z</time>
      </trkpt>
      <trkpt lat="42.93014" lon="0.29586">
        <ele>1232</ele>
        <time>2022-04-01T16:48:15Z</time>
      </trkpt>
      <trkpt lat="42.93021" lon="0.29589">
        <ele>1230</ele>
        <time>2022-04-01T16:48:21Z</time>
      </trkpt>
      <trkpt lat="42.9301" lon="0.29586">
        <ele>1233</ele>
        <time>2022-04-01T16:48:30Z</time>
      </trkpt>
      <trkpt lat="42.93008" lon="0.29592">
        <ele>1232</ele>
        <time>2022-04-01T16:48:34Z</time>
      </trkpt>
      <trkpt lat="42.92933" lon="0.29609">
        <ele>1241</ele>
        <time>2022-04-01T16:49:35Z</time>
      </trkpt>
      <trkpt lat="42.92852" lon="0.296">
        <ele>1254</ele>
        <time>2022-04-01T16:50:40Z</time>
      </trkpt>
      <trkpt lat="42.9283" lon="0.29607">
        <ele>1257</ele>
        <time>2022-04-01T16:50:58Z</time>
      </trkpt>
      <trkpt lat="42.92796" lon="0.29612">
        <ele>1262</ele>
        <time>2022-04-01T16:51:25Z</time>
      </trkpt>
      <trkpt lat="42.92773" lon="0.2961">
        <ele>1266</ele>
        <time>2022-04-01T16:51:44Z</time>
      </trkpt>
      <trkpt lat="42.92733" lon="0.29617">
        <ele>1274</ele>
        <time>2022-04-01T16:52:16Z</time>
      </trkpt>
      <trkpt lat="42.92723" lon="0.29613">
        <ele>1277</ele>
        <time>2022-04-01T16:52:24Z</time>
      </trkpt>
      <trkpt lat="42.92715" lon="0.29613">
        <ele>1279</ele>
        <time>2022-04-01T16:52:31Z</time>
      </trkpt>
      <trkpt lat="42.92686" lon="0.29618">
        <ele>1286</ele>
        <time>2022-04-01T16:52:54Z</time>
      </trkpt>
      <trkpt lat="42.92669" lon="0.29633">
        <ele>1291</ele>
        <time>2022-04-01T16:53:10Z</time>
      </trkpt>
      <trkpt lat="42.92658" lon="0.29639">
        <ele>1294</ele>
        <time>2022-04-01T16:53:20Z</time>
      </trkpt>
      <trkpt lat="42.92659" lon="0.29637">
        <ele>1294</ele>
        <time>2022-04-01T16:53:21Z</time>
      </trkpt>
      <trkpt lat="42.92651" lon="0.29633">
        <ele>1296</ele>
        <time>2022-04-01T16:53:28Z</time>
      </trkpt>
      <trkpt lat="42.92653" lon="0.29642">
        <ele>1296</ele>
        <time>2022-04-01T16:53:34Z</time>
      </trkpt>
      <trkpt lat="42.92638" lon="0.29644">
        <ele>1300</ele>
        <time>2022-04-01T16:53:46Z</time>
      </trkpt>
      <trkpt lat="42.92598" lon="0.29634">
        <ele>1311</ele>
        <time>2022-04-01T16:54:18Z</time>
      </trkpt>
      <trkpt lat="42.92578" lon="0.29626">
        <ele>1314</ele>
        <time>2022-04-01T16:54:35Z</time>
      </trkpt>
      <trkpt lat="42.92549" lon="0.29607">
        <ele>1316</ele>
        <time>2022-04-01T16:55:01Z</time>
      </trkpt>
      <trkpt lat="42.92518" lon="0.29592">
        <ele>1319</ele>
        <time>2022-04-01T16:55:27Z</time>
      </trkpt>
      <trkpt lat="42.92483" lon="0.29586">
        <ele>1322</ele>
        <time>2022-04-01T16:55:55Z</time>
      </trkpt>
      <trkpt lat="42.92439" lon="0.29583">
        <ele>1322</ele>
        <time>2022-04-01T16:56:30Z</time>
      </trkpt>
      <trkpt lat="42.92417" lon="0.29587">
        <ele>1324</ele>
        <time>2022-04-01T16:56:48Z</time>
      </trkpt>
      <trkpt lat="42.92348" lon="0.29586">
        <ele>1324</ele>
        <time>2022-04-01T16:57:43Z</time>
      </trkpt>
      <trkpt lat="42.92336" lon="0.29592">
        <ele>1325</ele>
        <time>2022-04-01T16:57:54Z</time>
      </trkpt>
      <trkpt lat="42.92321" lon="0.29593">
        <ele>1325</ele>
        <time>2022-04-01T16:58:06Z</time>
      </trkpt>
      <trkpt lat="42.92296" lon="0.29599">
        <ele>1326</ele>
        <time>2022-04-01T16:58:26Z</time>
      </trkpt>
      <trkpt lat="42.92237" lon="0.29645">
        <ele>1329</ele>
        <time>2022-04-01T16:59:20Z</time>
      </trkpt>
      <trkpt lat="42.92211" lon="0.29652">
        <ele>1326</ele>
        <time>2022-04-01T16:59:42Z</time>
      </trkpt>
      <trkpt lat="42.92186" lon="0.29664">
        <ele>1323</ele>
        <time>2022-04-01T17:00:03Z</time>
      </trkpt>
      <trkpt lat="42.92185" lon="0.29668">
        <ele>1323</ele>
        <time>2022-04-01T17:00:05Z</time>
      </trkpt>
      <trkpt lat="42.92187" lon="0.29667">
        <ele>1323</ele>
        <time>2022-04-01T17:00:07Z</time>
      </trkpt>
      <trkpt lat="42.9217" lon="0.29677">
        <ele>1322</ele>
        <time>2022-04-01T17:00:22Z</time>
      </trkpt>
      <trkpt lat="42.92162" lon="0.29678">
        <ele>1322</ele>
        <time>2022-04-01T17:00:28Z</time>
      </trkpt>
      <trkpt lat="42.92153" lon="0.29673">
        <ele>1320</ele>
        <time>2022-04-01T17:00:36Z</time>
      </trkpt>
      <trkpt lat="42.92129" lon="0.29686">
        <ele>1321</ele>
        <time>2022-04-01T17:00:57Z</time>
      </trkpt>
      <trkpt lat="42.9212" lon="0.29687">
        <ele>1321</ele>
        <time>2022-04-01T17:01:04Z</time>
      </trkpt>
      <trkpt lat="42.92112" lon="0.29694">
        <ele>1321</ele>
        <time>2022-04-01T17:01:12Z</time>
      </trkpt>
      <trkpt lat="42.92086" lon="0.29709">
        <ele>1320</ele>
        <time>2022-04-01T17:01:34Z</time>
      </trkpt>
      <trkpt lat="42.92078" lon="0.29706">
        <ele>1320</ele>
        <time>2022-04-01T17:01:41Z</time>
      </trkpt>
      <trkpt lat="42.92064" lon="0.2969">
        <ele>1320</ele>
        <time>2022-04-01T17:01:55Z</time>
      </trkpt>
      <trkpt lat="42.92046" lon="0.29687">
        <ele>1320</ele>
        <time>2022-04-01T17:02:10Z</time>
      </trkpt>
      <trkpt lat="42.92028" lon="0.2968">
        <ele>1321</ele>
        <time>2022-04-01T17:02:25Z</time>
      </trkpt>
      <trkpt lat="42.92019" lon="0.2968">
        <ele>1321</ele>
        <time>2022-04-01T17:02:32Z</time>
      </trkpt>
      <trkpt lat="42.92" lon="0.29673">
        <ele>1322</ele>
        <time>2022-04-01T17:02:48Z</time>
      </trkpt>
      <trkpt lat="42.91981" lon="0.29672">
        <ele>1323</ele>
        <time>2022-04-01T17:03:03Z</time>
      </trkpt>
      <trkpt lat="42.91972" lon="0.29669">
        <ele>1324</ele>
        <time>2022-04-01T17:03:11Z</time>
      </trkpt>
      <trkpt lat="42.91944" lon="0.29675">
        <ele>1325</ele>
        <time>2022-04-01T17:03:33Z</time>
      </trkpt>
      <trkpt lat="42.91911" lon="0.29676">
        <ele>1327</ele>
        <time>2022-04-01T17:04:00Z</time>
      </trkpt>
      <trkpt lat="42.91895" lon="0.29661">
        <ele>1330</ele>
        <time>2022-04-01T17:04:15Z</time>
      </trkpt>
      <trkpt lat="42.91898" lon="0.29649">
        <ele>1330</ele>
        <time>2022-04-01T17:04:23Z</time>
      </trkpt>
      <trkpt lat="42.91891" lon="0.29648">
        <ele>1331</ele>
        <time>2022-04-01T17:04:28Z</time>
      </trkpt>
      <trkpt lat="42.91885" lon="0.29642">
        <ele>1332</ele>
        <time>2022-04-01T17:04:34Z</time>
      </trkpt>
      <trkpt lat="42.91876" lon="0.29618">
        <ele>1334</ele>
        <time>2022-04-01T17:04:50Z</time>
      </trkpt>
      <trkpt lat="42.91873" lon="0.29603">
        <ele>1335</ele>
        <time>2022-04-01T17:04:59Z</time>
      </trkpt>
      <trkpt lat="42.91869" lon="0.29597">
        <ele>1336</ele>
        <time>2022-04-01T17:05:04Z</time>
      </trkpt>
      <trkpt lat="42.91839" lon="0.29593">
        <ele>1341</ele>
        <time>2022-04-01T17:05:28Z</time>
      </trkpt>
      <trkpt lat="42.9183" lon="0.29594">
        <ele>1342</ele>
        <time>2022-04-01T17:05:35Z</time>
      </trkpt>
      <trkpt lat="42.91821" lon="0.29591">
        <ele>1346</ele>
        <time>2022-04-01T17:05:43Z</time>
      </trkpt>
      <trkpt lat="42.9179" lon="0.29564">
        <ele>1355</ele>
        <time>2022-04-01T17:06:12Z</time>
      </trkpt>
      <trkpt lat="42.91777" lon="0.29546">
        <ele>1356</ele>
        <time>2022-04-01T17:06:27Z</time>
      </trkpt>
      <trkpt lat="42.91749" lon="0.2953">
        <ele>1362</ele>
        <time>2022-04-01T17:06:51Z</time>
      </trkpt>
      <trkpt lat="42.91728" lon="0.29525">
        <ele>1364</ele>
        <time>2022-04-01T17:07:08Z</time>
      </trkpt>
      <trkpt lat="42.91708" lon="0.29528">
        <ele>1367</ele>
        <time>2022-04-01T17:07:24Z</time>
      </trkpt>
      <trkpt lat="42.91695" lon="0.29524">
        <ele>1368</ele>
        <time>2022-04-01T17:07:35Z</time>
      </trkpt>
      <trkpt lat="42.91675" lon="0.29525">
        <ele>1370</ele>
        <time>2022-04-01T17:07:51Z</time>
      </trkpt>
      <trkpt lat="42.91631" lon="0.2954">
        <ele>1378</ele>
        <time>2022-04-01T17:08:27Z</time>
      </trkpt>
      <trkpt lat="42.91623" lon="0.29541">
        <ele>1378</ele>
        <time>2022-04-01T17:08:34Z</time>
      </trkpt>
      <trkpt lat="42.91615" lon="0.29537">
        <ele>1377</ele>
        <time>2022-04-01T17:08:41Z</time>
      </trkpt>
      <trkpt lat="42.91599" lon="0.29544">
        <ele>1379</ele>
        <time>2022-04-01T17:08:54Z</time>
      </trkpt>
      <trkpt lat="42.91587" lon="0.29545">
        <ele>1380</ele>
        <time>2022-04-01T17:09:04Z</time>
      </trkpt>
      <trkpt lat="42.91555" lon="0.29566">
        <ele>1385</ele>
        <time>2022-04-01T17:09:32Z</time>
      </trkpt>
      <trkpt lat="42.91535" lon="0.29585">
        <ele>1391</ele>
        <time>2022-04-01T17:09:52Z</time>
      </trkpt>
      <trkpt lat="42.91508" lon="0.29603">
        <ele>1393</ele>
        <time>2022-04-01T17:10:16Z</time>
      </trkpt>
      <trkpt lat="42.91482" lon="0.29627">
        <ele>1397</ele>
        <time>2022-04-01T17:10:41Z</time>
      </trkpt>
      <trkpt lat="42.91459" lon="0.29643">
        <ele>1400</ele>
        <time>2022-04-01T17:11:02Z</time>
      </trkpt>
      <trkpt lat="42.91415" lon="0.29687">
        <ele>1408</ele>
        <time>2022-04-01T17:11:45Z</time>
      </trkpt>
      <trkpt lat="42.91387" lon="0.29723">
        <ele>1412</ele>
        <time>2022-04-01T17:12:16Z</time>
      </trkpt>
      <trkpt lat="42.91351" lon="0.29753">
        <ele>1413</ele>
        <time>2022-04-01T17:12:50Z</time>
      </trkpt>
      <trkpt lat="42.9133" lon="0.29777">
        <ele>1414</ele>
        <time>2022-04-01T17:13:12Z</time>
      </trkpt>
      <trkpt lat="42.91339" lon="0.29774">
        <ele>1414</ele>
        <time>2022-04-01T17:13:19Z</time>
      </trkpt>
      <trkpt lat="42.91332" lon="0.29793">
        <ele>1416</ele>
        <time>2022-04-01T17:13:32Z</time>
      </trkpt>
      <trkpt lat="42.9131" lon="0.29819">
        <ele>1416</ele>
        <time>2022-04-01T17:13:55Z</time>
      </trkpt>
      <trkpt lat="42.91283" lon="0.29827">
        <ele>1414</ele>
        <time>2022-04-01T17:14:17Z</time>
      </trkpt>
      <trkpt lat="42.91275" lon="0.29828">
        <ele>1413</ele>
        <time>2022-04-01T17:14:23Z</time>
      </trkpt>
      <trkpt lat="42.91266" lon="0.29824">
        <ele>1412</ele>
        <time>2022-04-01T17:14:31Z</time>
      </trkpt>
      <trkpt lat="42.9126" lon="0.29828">
        <ele>1411</ele>
        <time>2022-04-01T17:14:36Z</time>
      </trkpt>
      <trkpt lat="42.91224" lon="0.29885">
        <ele>1418</ele>
        <time>2022-04-01T17:15:21Z</time>
      </trkpt>
      <trkpt lat="42.91206" lon="0.29888">
        <ele>1417</ele>
        <time>2022-04-01T17:15:35Z</time>
      </trkpt>
      <trkpt lat="42.91197" lon="0.29885">
        <ele>1416</ele>
        <time>2022-04-01T17:15:42Z</time>
      </trkpt>
      <trkpt lat="42.91171" lon="0.29884">
        <ele>1414</ele>
        <time>2022-04-01T17:16:03Z</time>
      </trkpt>
      <trkpt lat="42.91207" lon="0.29888">
        <ele>1417</ele>
        <time>2022-04-01T17:16:32Z</time>
      </trkpt>
      <trkpt lat="42.91217" lon="0.29887">
        <ele>1417</ele>
        <time>2022-04-01T17:16:40Z</time>
      </trkpt>
      <trkpt lat="42.91225" lon="0.29882">
        <ele>1417</ele>
        <time>2022-04-01T17:16:47Z</time>
      </trkpt>
      <trkpt lat="42.91232" lon="0.29875">
        <ele>1417</ele>
        <time>2022-04-01T17:16:54Z</time>
      </trkpt>
      <trkpt lat="42.91261" lon="0.29828">
        <ele>1411</ele>
        <time>2022-04-01T17:17:30Z</time>
      </trkpt>
      <trkpt lat="42.91266" lon="0.29806">
        <ele>1411</ele>
        <time>2022-04-01T17:17:44Z</time>
      </trkpt>
      <trkpt lat="42.91261" lon="0.29795">
        <ele>1410</ele>
        <time>2022-04-01T17:17:51Z</time>
      </trkpt>
      <trkpt lat="42.91223" lon="0.29757">
        <ele>1410</ele>
        <time>2022-04-01T17:18:29Z</time>
      </trkpt>
      <trkpt lat="42.91215" lon="0.29752">
        <ele>1410</ele>
        <time>2022-04-01T17:18:36Z</time>
      </trkpt>
      <trkpt lat="42.91169" lon="0.29753">
        <ele>1412</ele>
        <time>2022-04-01T17:19:13Z</time>
      </trkpt>
      <trkpt lat="42.9116" lon="0.2975">
        <ele>1413</ele>
        <time>2022-04-01T17:19:20Z</time>
      </trkpt>
      <trkpt lat="42.91123" lon="0.29756">
        <ele>1417</ele>
        <time>2022-04-01T17:19:50Z</time>
      </trkpt>
      <trkpt lat="42.91069" lon="0.29757">
        <ele>1423</ele>
        <time>2022-04-01T17:20:33Z</time>
      </trkpt>
      <trkpt lat="42.91053" lon="0.29744">
        <ele>1423</ele>
        <time>2022-04-01T17:20:48Z</time>
      </trkpt>
      <trkpt lat="42.91004" lon="0.29662">
        <ele>1421</ele>
        <time>2022-04-01T17:21:50Z</time>
      </trkpt>
      <trkpt lat="42.9097" lon="0.29615">
        <ele>1421</ele>
        <time>2022-04-01T17:22:29Z</time>
      </trkpt>
      <trkpt lat="42.90907" lon="0.29518">
        <ele>1418</ele>
        <time>2022-04-01T17:23:45Z</time>
      </trkpt>
      <trkpt lat="42.90866" lon="0.29446">
        <ele>1417</ele>
        <time>2022-04-01T17:24:39Z</time>
      </trkpt>
      <trkpt lat="42.9084" lon="0.29406">
        <ele>1418</ele>
        <time>2022-04-01T17:25:10Z</time>
      </trkpt>
      <trkpt lat="42.90833" lon="0.29399">
        <ele>1418</ele>
        <time>2022-04-01T17:25:17Z</time>
      </trkpt>
      <trkpt lat="42.90797" lon="0.29334">
        <ele>1419</ele>
        <time>2022-04-01T17:26:05Z</time>
      </trkpt>
      <trkpt lat="42.90758" lon="0.29293">
        <ele>1420</ele>
        <time>2022-04-01T17:26:44Z</time>
      </trkpt>
      <trkpt lat="42.90703" lon="0.29226">
        <ele>1419</ele>
        <time>2022-04-01T17:27:43Z</time>
      </trkpt>
      <trkpt lat="42.90681" lon="0.29174">
        <ele>1413</ele>
        <time>2022-04-01T17:28:18Z</time>
      </trkpt>
      <trkpt lat="42.90674" lon="0.29135">
        <ele>1407</ele>
        <time>2022-04-01T17:28:42Z</time>
      </trkpt>
      <trkpt lat="42.90656" lon="0.291">
        <ele>1404</ele>
        <time>2022-04-01T17:29:07Z</time>
      </trkpt>
      <trkpt lat="42.90649" lon="0.29092">
        <ele>1404</ele>
        <time>2022-04-01T17:29:14Z</time>
      </trkpt>
      <trkpt lat="42.9064" lon="0.29088">
        <ele>1404</ele>
        <time>2022-04-01T17:29:22Z</time>
      </trkpt>
      <trkpt lat="42.90633" lon="0.29081">
        <ele>1404</ele>
        <time>2022-04-01T17:29:29Z</time>
      </trkpt>
      <trkpt lat="42.90626" lon="0.29079">
        <ele>1404</ele>
        <time>2022-04-01T17:29:35Z</time>
      </trkpt>
      <trkpt lat="42.90577" lon="0.2904">
        <ele>1399</ele>
        <time>2022-04-01T17:30:20Z</time>
      </trkpt>
      <trkpt lat="42.90539" lon="0.29004">
        <ele>1398</ele>
        <time>2022-04-01T17:30:57Z</time>
      </trkpt>
      <trkpt lat="42.90529" lon="0.29">
        <ele>1400</ele>
        <time>2022-04-01T17:31:05Z</time>
      </trkpt>
      <trkpt lat="42.90502" lon="0.28947">
        <ele>1393</ele>
        <time>2022-04-01T17:31:43Z</time>
      </trkpt>
      <trkpt lat="42.90495" lon="0.2891">
        <ele>1384</ele>
        <time>2022-04-01T17:32:06Z</time>
      </trkpt>
      <trkpt lat="42.90498" lon="0.28858">
        <ele>1378</ele>
        <time>2022-04-01T17:32:36Z</time>
      </trkpt>
      <trkpt lat="42.90501" lon="0.28846">
        <ele>1376</ele>
        <time>2022-04-01T17:32:44Z</time>
      </trkpt>
      <trkpt lat="42.90514" lon="0.28825">
        <ele>1375</ele>
        <time>2022-04-01T17:33:00Z</time>
      </trkpt>
      <trkpt lat="42.90542" lon="0.28814">
        <ele>1376</ele>
        <time>2022-04-01T17:33:23Z</time>
      </trkpt>
      <trkpt lat="42.90561" lon="0.28813">
        <ele>1375</ele>
        <time>2022-04-01T17:33:38Z</time>
      </trkpt>
      <trkpt lat="42.90588" lon="0.28819">
        <ele>1373</ele>
        <time>2022-04-01T17:34:00Z</time>
      </trkpt>
      <trkpt lat="42.90594" lon="0.28811">
        <ele>1374</ele>
        <time>2022-04-01T17:34:07Z</time>
      </trkpt>
      <trkpt lat="42.90602" lon="0.28807">
        <ele>1374</ele>
        <time>2022-04-01T17:34:14Z</time>
      </trkpt>
      <trkpt lat="42.90621" lon="0.28808">
        <ele>1373</ele>
        <time>2022-04-01T17:34:29Z</time>
      </trkpt>
      <trkpt lat="42.90693" lon="0.28824">
        <ele>1365</ele>
        <time>2022-04-01T17:35:27Z</time>
      </trkpt>
      <trkpt lat="42.90701" lon="0.28824">
        <ele>1365</ele>
        <time>2022-04-01T17:35:34Z</time>
      </trkpt>
      <trkpt lat="42.90721" lon="0.2883">
        <ele>1363</ele>
        <time>2022-04-01T17:35:50Z</time>
      </trkpt>
      <trkpt lat="42.90788" lon="0.28851">
        <ele>1358</ele>
        <time>2022-04-01T17:36:45Z</time>
      </trkpt>
      <trkpt lat="42.90915" lon="0.289">
        <ele>1352</ele>
        <time>2022-04-01T17:38:31Z</time>
      </trkpt>
      <trkpt lat="42.90943" lon="0.28907">
        <ele>1351</ele>
        <time>2022-04-01T17:38:54Z</time>
      </trkpt>
      <trkpt lat="42.90971" lon="0.28908">
        <ele>1352</ele>
        <time>2022-04-01T17:39:16Z</time>
      </trkpt>
      <trkpt lat="42.90998" lon="0.28916">
        <ele>1350</ele>
        <time>2022-04-01T17:39:38Z</time>
      </trkpt>
      <trkpt lat="42.91026" lon="0.28952">
        <ele>1345</ele>
        <time>2022-04-01T17:40:09Z</time>
      </trkpt>
      <trkpt lat="42.91051" lon="0.2897">
        <ele>1340</ele>
        <time>2022-04-01T17:40:32Z</time>
      </trkpt>
      <trkpt lat="42.91065" lon="0.28985">
        <ele>1336</ele>
        <time>2022-04-01T17:40:46Z</time>
      </trkpt>
      <trkpt lat="42.91082" lon="0.28996">
        <ele>1332</ele>
        <time>2022-04-01T17:41:01Z</time>
      </trkpt>
      <trkpt lat="42.91091" lon="0.28999">
        <ele>1331</ele>
        <time>2022-04-01T17:41:08Z</time>
      </trkpt>
      <trkpt lat="42.91129" lon="0.29002">
        <ele>1329</ele>
        <time>2022-04-01T17:41:39Z</time>
      </trkpt>
      <trkpt lat="42.91194" lon="0.29022">
        <ele>1323</ele>
        <time>2022-04-01T17:42:32Z</time>
      </trkpt>
      <trkpt lat="42.9125" lon="0.29027">
        <ele>1319</ele>
        <time>2022-04-01T17:43:17Z</time>
      </trkpt>
      <trkpt lat="42.91296" lon="0.29045">
        <ele>1315</ele>
        <time>2022-04-01T17:43:56Z</time>
      </trkpt>
      <trkpt lat="42.91324" lon="0.29052">
        <ele>1313</ele>
        <time>2022-04-01T17:44:18Z</time>
      </trkpt>
      <trkpt lat="42.91361" lon="0.29069">
        <ele>1307</ele>
        <time>2022-04-01T17:44:50Z</time>
      </trkpt>
      <trkpt lat="42.9138" lon="0.29068">
        <ele>1306</ele>
        <time>2022-04-01T17:45:05Z</time>
      </trkpt>
      <trkpt lat="42.91398" lon="0.29064">
        <ele>1307</ele>
        <time>2022-04-01T17:45:19Z</time>
      </trkpt>
      <trkpt lat="42.91417" lon="0.29055">
        <ele>1309</ele>
        <time>2022-04-01T17:45:36Z</time>
      </trkpt>
      <trkpt lat="42.91434" lon="0.29043">
        <ele>1312</ele>
        <time>2022-04-01T17:45:51Z</time>
      </trkpt>
      <trkpt lat="42.91484" lon="0.29044">
        <ele>1308</ele>
        <time>2022-04-01T17:46:31Z</time>
      </trkpt>
      <trkpt lat="42.91502" lon="0.29041">
        <ele>1308</ele>
        <time>2022-04-01T17:46:45Z</time>
      </trkpt>
      <trkpt lat="42.91523" lon="0.29043">
        <ele>1307</ele>
        <time>2022-04-01T17:47:02Z</time>
      </trkpt>
      <trkpt lat="42.91563" lon="0.29054">
        <ele>1303</ele>
        <time>2022-04-01T17:47:35Z</time>
      </trkpt>
      <trkpt lat="42.91582" lon="0.29055">
        <ele>1302</ele>
        <time>2022-04-01T17:47:50Z</time>
      </trkpt>
      <trkpt lat="42.91592" lon="0.29058">
        <ele>1301</ele>
        <time>2022-04-01T17:47:58Z</time>
      </trkpt>
      <trkpt lat="42.91601" lon="0.29057">
        <ele>1301</ele>
        <time>2022-04-01T17:48:06Z</time>
      </trkpt>
      <trkpt lat="42.91619" lon="0.29061">
        <ele>1300</ele>
        <time>2022-04-01T17:48:20Z</time>
      </trkpt>
      <trkpt lat="42.91638" lon="0.29075">
        <ele>1294</ele>
        <time>2022-04-01T17:48:37Z</time>
      </trkpt>
      <trkpt lat="42.91656" lon="0.29085">
        <ele>1290</ele>
        <time>2022-04-01T17:48:53Z</time>
      </trkpt>
      <trkpt lat="42.91674" lon="0.29091">
        <ele>1290</ele>
        <time>2022-04-01T17:49:08Z</time>
      </trkpt>
      <trkpt lat="42.91708" lon="0.29112">
        <ele>1287</ele>
        <time>2022-04-01T17:49:38Z</time>
      </trkpt>
      <trkpt lat="42.9174" lon="0.29138">
        <ele>1282</ele>
        <time>2022-04-01T17:50:08Z</time>
      </trkpt>
      <trkpt lat="42.91749" lon="0.29142">
        <ele>1281</ele>
        <time>2022-04-01T17:50:15Z</time>
      </trkpt>
      <trkpt lat="42.91789" lon="0.29172">
        <ele>1276</ele>
        <time>2022-04-01T17:50:52Z</time>
      </trkpt>
      <trkpt lat="42.9182" lon="0.292">
        <ele>1277</ele>
        <time>2022-04-01T17:51:21Z</time>
      </trkpt>
      <trkpt lat="42.91878" lon="0.29243">
        <ele>1276</ele>
        <time>2022-04-01T17:52:14Z</time>
      </trkpt>
      <trkpt lat="42.91918" lon="0.29255">
        <ele>1275</ele>
        <time>2022-04-01T17:52:47Z</time>
      </trkpt>
      <trkpt lat="42.91935" lon="0.29263">
        <ele>1272</ele>
        <time>2022-04-01T17:53:01Z</time>
      </trkpt>
      <trkpt lat="42.91965" lon="0.29259">
        <ele>1266</ele>
        <time>2022-04-01T17:53:26Z</time>
      </trkpt>
      <trkpt lat="42.92004" lon="0.29247">
        <ele>1261</ele>
        <time>2022-04-01T17:53:58Z</time>
      </trkpt>
      <trkpt lat="42.92051" lon="0.29241">
        <ele>1261</ele>
        <time>2022-04-01T17:54:35Z</time>
      </trkpt>
      <trkpt lat="42.9208" lon="0.29244">
        <ele>1260</ele>
        <time>2022-04-01T17:54:59Z</time>
      </trkpt>
      <trkpt lat="42.92119" lon="0.29238">
        <ele>1260</ele>
        <time>2022-04-01T17:55:30Z</time>
      </trkpt>
      <trkpt lat="42.92137" lon="0.29243">
        <ele>1258</ele>
        <time>2022-04-01T17:55:45Z</time>
      </trkpt>
      <trkpt lat="42.92139" lon="0.29254">
        <ele>1256</ele>
        <time>2022-04-01T17:55:51Z</time>
      </trkpt>
      <trkpt lat="42.9215" lon="0.29274">
        <ele>1256</ele>
        <time>2022-04-01T17:56:06Z</time>
      </trkpt>
      <trkpt lat="42.92165" lon="0.29291">
        <ele>1256</ele>
        <time>2022-04-01T17:56:22Z</time>
      </trkpt>
      <trkpt lat="42.92177" lon="0.29313">
        <ele>1255</ele>
        <time>2022-04-01T17:56:38Z</time>
      </trkpt>
      <trkpt lat="42.92201" lon="0.29341">
        <ele>1256</ele>
        <time>2022-04-01T17:57:03Z</time>
      </trkpt>
      <trkpt lat="42.92212" lon="0.29347">
        <ele>1256</ele>
        <time>2022-04-01T17:57:13Z</time>
      </trkpt>
      <trkpt lat="42.92226" lon="0.29349">
        <ele>1256</ele>
        <time>2022-04-01T17:57:24Z</time>
      </trkpt>
      <trkpt lat="42.92235" lon="0.29345">
        <ele>1255</ele>
        <time>2022-04-01T17:57:31Z</time>
      </trkpt>
      <trkpt lat="42.92245" lon="0.29344">
        <ele>1255</ele>
        <time>2022-04-01T17:57:39Z</time>
      </trkpt>
      <trkpt lat="42.92257" lon="0.29351">
        <ele>1256</ele>
        <time>2022-04-01T17:57:50Z</time>
      </trkpt>
      <trkpt lat="42.92272" lon="0.2935">
        <ele>1255</ele>
        <time>2022-04-01T17:58:02Z</time>
      </trkpt>
      <trkpt lat="42.92281" lon="0.29344">
        <ele>1254</ele>
        <time>2022-04-01T17:58:10Z</time>
      </trkpt>
      <trkpt lat="42.92334" lon="0.2933">
        <ele>1249</ele>
        <time>2022-04-01T17:58:53Z</time>
      </trkpt>
      <trkpt lat="42.92368" lon="0.29315">
        <ele>1246</ele>
        <time>2022-04-01T17:59:22Z</time>
      </trkpt>
      <trkpt lat="42.92394" lon="0.2931">
        <ele>1245</ele>
        <time>2022-04-01T17:59:43Z</time>
      </trkpt>
      <trkpt lat="42.92404" lon="0.29303">
        <ele>1243</ele>
        <time>2022-04-01T17:59:52Z</time>
      </trkpt>
      <trkpt lat="42.92424" lon="0.293">
        <ele>1242</ele>
        <time>2022-04-01T18:00:08Z</time>
      </trkpt>
      <trkpt lat="42.92443" lon="0.29291">
        <ele>1239</ele>
        <time>2022-04-01T18:00:24Z</time>
      </trkpt>
      <trkpt lat="42.92478" lon="0.29282">
        <ele>1234</ele>
        <time>2022-04-01T18:00:53Z</time>
      </trkpt>
      <trkpt lat="42.92534" lon="0.29285">
        <ele>1228</ele>
        <time>2022-04-01T18:01:37Z</time>
      </trkpt>
      <trkpt lat="42.92566" lon="0.29293">
        <ele>1225</ele>
        <time>2022-04-01T18:02:03Z</time>
      </trkpt>
      <trkpt lat="42.92598" lon="0.29307">
        <ele>1223</ele>
        <time>2022-04-01T18:02:30Z</time>
      </trkpt>
      <trkpt lat="42.92617" lon="0.29318">
        <ele>1222</ele>
        <time>2022-04-01T18:02:47Z</time>
      </trkpt>
      <trkpt lat="42.92648" lon="0.2933">
        <ele>1219</ele>
        <time>2022-04-01T18:03:13Z</time>
      </trkpt>
      <trkpt lat="42.9267" lon="0.29335">
        <ele>1217</ele>
        <time>2022-04-01T18:03:31Z</time>
      </trkpt>
      <trkpt lat="42.92689" lon="0.29336">
        <ele>1215</ele>
        <time>2022-04-01T18:03:46Z</time>
      </trkpt>
      <trkpt lat="42.92748" lon="0.29357">
        <ele>1214</ele>
        <time>2022-04-01T18:04:35Z</time>
      </trkpt>
      <trkpt lat="42.92788" lon="0.29363">
        <ele>1210</ele>
        <time>2022-04-01T18:05:07Z</time>
      </trkpt>
      <trkpt lat="42.92839" lon="0.29358">
        <ele>1202</ele>
        <time>2022-04-01T18:05:48Z</time>
      </trkpt>
      <trkpt lat="42.92861" lon="0.29359">
        <ele>1200</ele>
        <time>2022-04-01T18:06:05Z</time>
      </trkpt>
      <trkpt lat="42.92881" lon="0.29365">
        <ele>1199</ele>
        <time>2022-04-01T18:06:22Z</time>
      </trkpt>
      <trkpt lat="42.92888" lon="0.29364">
        <ele>1198</ele>
        <time>2022-04-01T18:06:27Z</time>
      </trkpt>
      <trkpt lat="42.92895" lon="0.29349">
        <ele>1194</ele>
        <time>2022-04-01T18:06:38Z</time>
      </trkpt>
      <trkpt lat="42.92905" lon="0.29348">
        <ele>1193</ele>
        <time>2022-04-01T18:06:46Z</time>
      </trkpt>
      <trkpt lat="42.92909" lon="0.29364">
        <ele>1196</ele>
        <time>2022-04-01T18:06:56Z</time>
      </trkpt>
      <trkpt lat="42.92916" lon="0.29369">
        <ele>1196</ele>
        <time>2022-04-01T18:07:02Z</time>
      </trkpt>
      <trkpt lat="42.92924" lon="0.29372">
        <ele>1196</ele>
        <time>2022-04-01T18:07:09Z</time>
      </trkpt>
      <trkpt lat="42.92961" lon="0.29376">
        <ele>1192</ele>
        <time>2022-04-01T18:07:38Z</time>
      </trkpt>
      <trkpt lat="42.93" lon="0.29377">
        <ele>1187</ele>
        <time>2022-04-01T18:08:10Z</time>
      </trkpt>
      <trkpt lat="42.93034" lon="0.29381">
        <ele>1184</ele>
        <time>2022-04-01T18:08:37Z</time>
      </trkpt>
      <trkpt lat="42.93055" lon="0.29379">
        <ele>1181</ele>
        <time>2022-04-01T18:08:54Z</time>
      </trkpt>
      <trkpt lat="42.93067" lon="0.29381">
        <ele>1180</ele>
        <time>2022-04-01T18:09:04Z</time>
      </trkpt>
      <trkpt lat="42.93102" lon="0.2938">
        <ele>1177</ele>
        <time>2022-04-01T18:09:32Z</time>
      </trkpt>
      <trkpt lat="42.93134" lon="0.29382">
        <ele>1174</ele>
        <time>2022-04-01T18:09:57Z</time>
      </trkpt>
      <trkpt lat="42.93167" lon="0.29376">
        <ele>1170</ele>
        <time>2022-04-01T18:10:24Z</time>
      </trkpt>
      <trkpt lat="42.93198" lon="0.29362">
        <ele>1165</ele>
        <time>2022-04-01T18:10:50Z</time>
      </trkpt>
      <trkpt lat="42.93232" lon="0.29337">
        <ele>1158</ele>
        <time>2022-04-01T18:11:21Z</time>
      </trkpt>
      <trkpt lat="42.93261" lon="0.2932">
        <ele>1155</ele>
        <time>2022-04-01T18:11:46Z</time>
      </trkpt>
      <trkpt lat="42.93306" lon="0.29275">
        <ele>1149</ele>
        <time>2022-04-01T18:12:31Z</time>
      </trkpt>
      <trkpt lat="42.93337" lon="0.29226">
        <ele>1145</ele>
        <time>2022-04-01T18:13:09Z</time>
      </trkpt>
      <trkpt lat="42.93354" lon="0.29211">
        <ele>1143</ele>
        <time>2022-04-01T18:13:25Z</time>
      </trkpt>
      <trkpt lat="42.93405" lon="0.29171">
        <ele>1137</ele>
        <time>2022-04-01T18:14:12Z</time>
      </trkpt>
      <trkpt lat="42.93439" lon="0.29149">
        <ele>1136</ele>
        <time>2022-04-01T18:14:42Z</time>
      </trkpt>
      <trkpt lat="42.93474" lon="0.29134">
        <ele>1136</ele>
        <time>2022-04-01T18:15:12Z</time>
      </trkpt>
      <trkpt lat="42.93492" lon="0.29123">
        <ele>1135</ele>
        <time>2022-04-01T18:15:27Z</time>
      </trkpt>
      <trkpt lat="42.93501" lon="0.29122">
        <ele>1134</ele>
        <time>2022-04-01T18:15:35Z</time>
      </trkpt>
      <trkpt lat="42.93507" lon="0.29112">
        <ele>1134</ele>
        <time>2022-04-01T18:15:42Z</time>
      </trkpt>
      <trkpt lat="42.93517" lon="0.29107">
        <ele>1133</ele>
        <time>2022-04-01T18:15:51Z</time>
      </trkpt>
      <trkpt lat="42.9356" lon="0.2906">
        <ele>1130</ele>
        <time>2022-04-01T18:16:35Z</time>
      </trkpt>
      <trkpt lat="42.93595" lon="0.28983">
        <ele>1129</ele>
        <time>2022-04-01T18:17:28Z</time>
      </trkpt>
      <trkpt lat="42.93666" lon="0.28863">
        <ele>1127</ele>
        <time>2022-04-01T18:18:58Z</time>
      </trkpt>
      <trkpt lat="42.93676" lon="0.28841">
        <ele>1126</ele>
        <time>2022-04-01T18:19:14Z</time>
      </trkpt>
      <trkpt lat="42.93728" lon="0.2875">
        <ele>1126</ele>
        <time>2022-04-01T18:20:21Z</time>
      </trkpt>
      <trkpt lat="42.93753" lon="0.28711">
        <ele>1126</ele>
        <time>2022-04-01T18:20:52Z</time>
      </trkpt>
      <trkpt lat="42.93762" lon="0.28689">
        <ele>1125</ele>
        <time>2022-04-01T18:21:06Z</time>
      </trkpt>
      <trkpt lat="42.93775" lon="0.28671">
        <ele>1124</ele>
        <time>2022-04-01T18:21:21Z</time>
      </trkpt>
      <trkpt lat="42.93779" lon="0.2866">
        <ele>1125</ele>
        <time>2022-04-01T18:21:28Z</time>
      </trkpt>
      <trkpt lat="42.93808" lon="0.28611">
        <ele>1123</ele>
        <time>2022-04-01T18:22:05Z</time>
      </trkpt>
      <trkpt lat="42.93864" lon="0.28526">
        <ele>1118</ele>
        <time>2022-04-01T18:23:12Z</time>
      </trkpt>
      <trkpt lat="42.93868" lon="0.28515">
        <ele>1118</ele>
        <time>2022-04-01T18:23:20Z</time>
      </trkpt>
      <trkpt lat="42.93891" lon="0.28476">
        <ele>1117</ele>
        <time>2022-04-01T18:23:49Z</time>
      </trkpt>
      <trkpt lat="42.93918" lon="0.2844">
        <ele>1115</ele>
        <time>2022-04-01T18:24:19Z</time>
      </trkpt>
      <trkpt lat="42.93926" lon="0.28433">
        <ele>1114</ele>
        <time>2022-04-01T18:24:27Z</time>
      </trkpt>
      <trkpt lat="42.93944" lon="0.28402">
        <ele>1112</ele>
        <time>2022-04-01T18:24:50Z</time>
      </trkpt>
      <trkpt lat="42.93947" lon="0.28389">
        <ele>1112</ele>
        <time>2022-04-01T18:24:58Z</time>
      </trkpt>
      <trkpt lat="42.93957" lon="0.28369">
        <ele>1111</ele>
        <time>2022-04-01T18:25:12Z</time>
      </trkpt>
      <trkpt lat="42.93979" lon="0.28345">
        <ele>1109</ele>
        <time>2022-04-01T18:25:35Z</time>
      </trkpt>
      <trkpt lat="42.9399" lon="0.28325">
        <ele>1109</ele>
        <time>2022-04-01T18:25:49Z</time>
      </trkpt>
      <trkpt lat="42.94065" lon="0.28226">
        <ele>1108</ele>
        <time>2022-04-01T18:27:13Z</time>
      </trkpt>
      <trkpt lat="42.94096" lon="0.28161">
        <ele>1108</ele>
        <time>2022-04-01T18:27:58Z</time>
      </trkpt>
      <trkpt lat="42.94119" lon="0.28121">
        <ele>1104</ele>
        <time>2022-04-01T18:28:28Z</time>
      </trkpt>
      <trkpt lat="42.94191" lon="0.28064">
        <ele>1096</ele>
        <time>2022-04-01T18:29:35Z</time>
      </trkpt>
      <trkpt lat="42.9422" lon="0.28034">
        <ele>1093</ele>
        <time>2022-04-01T18:30:04Z</time>
      </trkpt>
      <trkpt lat="42.94227" lon="0.28024">
        <ele>1092</ele>
        <time>2022-04-01T18:30:12Z</time>
      </trkpt>
      <trkpt lat="42.94236" lon="0.28001">
        <ele>1092</ele>
        <time>2022-04-01T18:30:27Z</time>
      </trkpt>
      <trkpt lat="42.94253" lon="0.2797">
        <ele>1091</ele>
        <time>2022-04-01T18:30:50Z</time>
      </trkpt>
      <trkpt lat="42.94258" lon="0.27958">
        <ele>1092</ele>
        <time>2022-04-01T18:30:58Z</time>
      </trkpt>
      <trkpt lat="42.94259" lon="0.27945">
        <ele>1092</ele>
        <time>2022-04-01T18:31:06Z</time>
      </trkpt>
    </trkseg>
  </trk>
</gpx>